sensor_id;sensor_type;location;lat;lon;timestamp;P1;durP1;ratioP1;P2;durP2;ratioP2
30299;SDS011;17110;52.602;12.998;2023-03-23T00:00:45;4.13;;;2.83;;
30299;SDS011;17110;52.602;12.998;2023-03-23T00:03:10;2.67;;;2.30;;
30299;SDS011;17110;52.602;12.998;2023-03-23T00:05:38;4.40;;;2.60;;
30299;SDS011;17110;52.602;12.998;2023-03-23T00:08:06;3.00;;;2.42;;
30299;SDS011;17110;52.602;12.998;2023-03-23T00:10:35;3.85;;;2.45;;
30299;SDS011;17110;52.602;12.998;2023-03-23T00:13:01;3.55;;;2.30;;
30299;SDS011;17110;52.602;12.998;2023-03-23T00:15:29;4.27;;;2.70;;
30299;SDS011;17110;52.602;12.998;2023-03-23T00:18:00;3.05;;;2.20;;
30299;SDS011;17110;52.602;12.998;2023-03-23T00:20:31;3.63;;;2.65;;
30299;SDS011;17110;52.602;12.998;2023-03-23T00:23:05;3.10;;;2.40;;
30299;SDS011;17110;52.602;12.998;2023-03-23T00:25:32;4.75;;;2.70;;
30299;SDS011;17110;52.602;12.998;2023-03-23T00:28:01;3.95;;;2.42;;
30299;SDS011;17110;52.602;12.998;2023-03-23T00:30:32;3.72;;;2.65;;
30299;SDS011;17110;52.602;12.998;2023-03-23T00:33:02;3.58;;;2.47;;
30299;SDS011;17110;52.602;12.998;2023-03-23T00:35:28;5.00;;;2.90;;
30299;SDS011;17110;52.602;12.998;2023-03-23T00:38:08;3.80;;;2.70;;
30299;SDS011;17110;52.602;12.998;2023-03-23T00:40:37;3.63;;;2.72;;
30299;SDS011;17110;52.602;12.998;2023-03-23T00:43:03;3.03;;;2.50;;
30299;SDS011;17110;52.602;12.998;2023-03-23T00:45:36;3.43;;;2.50;;
30299;SDS011;17110;52.602;12.998;2023-03-23T00:48:04;3.28;;;2.53;;
30299;SDS011;17110;52.602;12.998;2023-03-23T00:50:33;4.53;;;2.30;;
30299;SDS011;17110;52.602;12.998;2023-03-23T00:53:02;3.20;;;2.70;;
30299;SDS011;17110;52.602;12.998;2023-03-23T00:55:37;6.70;;;2.50;;
30299;SDS011;17110;52.602;12.998;2023-03-23T00:58:08;3.43;;;2.40;;
30299;SDS011;17110;52.602;12.998;2023-03-23T01:00:39;4.65;;;2.53;;
30299;SDS011;17110;52.602;12.998;2023-03-23T01:03:09;2.90;;;2.50;;
30299;SDS011;17110;52.602;12.998;2023-03-23T01:05:43;4.65;;;2.78;;
30299;SDS011;17110;52.602;12.998;2023-03-23T01:08:13;7.18;;;2.72;;
30299;SDS011;17110;52.602;12.998;2023-03-23T01:10:42;3.63;;;2.80;;
30299;SDS011;17110;52.602;12.998;2023-03-23T01:13:10;2.80;;;2.53;;
30299;SDS011;17110;52.602;12.998;2023-03-23T01:15:49;4.78;;;2.60;;
30299;SDS011;17110;52.602;12.998;2023-03-23T01:18:17;3.58;;;2.60;;
30299;SDS011;17110;52.602;12.998;2023-03-23T01:20:46;3.83;;;2.70;;
30299;SDS011;17110;52.602;12.998;2023-03-23T01:23:14;3.78;;;2.70;;
30299;SDS011;17110;52.602;12.998;2023-03-23T01:25:44;4.40;;;3.13;;
30299;SDS011;17110;52.602;12.998;2023-03-23T01:28:10;4.97;;;2.93;;
30299;SDS011;17110;52.602;12.998;2023-03-23T01:30:41;4.03;;;2.83;;
30299;SDS011;17110;52.602;12.998;2023-03-23T01:33:09;5.18;;;3.00;;
30299;SDS011;17110;52.602;12.998;2023-03-23T01:35:36;4.47;;;3.08;;
30299;SDS011;17110;52.602;12.998;2023-03-23T01:38:03;3.80;;;2.77;;
30299;SDS011;17110;52.602;12.998;2023-03-23T01:40:34;3.30;;;2.97;;
30299;SDS011;17110;52.602;12.998;2023-03-23T01:43:07;3.60;;;2.67;;
30299;SDS011;17110;52.602;12.998;2023-03-23T01:45:42;4.70;;;2.97;;
30299;SDS011;17110;52.602;12.998;2023-03-23T01:48:12;3.92;;;2.33;;
30299;SDS011;17110;52.602;12.998;2023-03-23T01:50:53;3.45;;;2.50;;
30299;SDS011;17110;52.602;12.998;2023-03-23T01:53:28;2.80;;;2.50;;
30299;SDS011;17110;52.602;12.998;2023-03-23T01:56:01;2.85;;;2.47;;
30299;SDS011;17110;52.602;12.998;2023-03-23T01:58:31;3.70;;;2.33;;
30299;SDS011;17110;52.602;12.998;2023-03-23T02:01:05;3.80;;;2.40;;
30299;SDS011;17110;52.602;12.998;2023-03-23T02:03:37;4.72;;;2.60;;
30299;SDS011;17110;52.602;12.998;2023-03-23T02:06:06;3.67;;;2.40;;
30299;SDS011;17110;52.602;12.998;2023-03-23T02:08:32;3.28;;;2.50;;
30299;SDS011;17110;52.602;12.998;2023-03-23T02:10:59;3.65;;;2.45;;
30299;SDS011;17110;52.602;12.998;2023-03-23T02:13:25;3.00;;;2.70;;
30299;SDS011;17110;52.602;12.998;2023-03-23T02:38:05;3.55;;;2.45;;
30299;SDS011;17110;52.602;12.998;2023-03-23T02:40:33;2.88;;;2.40;;
30299;SDS011;17110;52.602;12.998;2023-03-23T02:43:43;4.32;;;2.38;;
30299;SDS011;17110;52.602;12.998;2023-03-23T02:46:53;5.38;;;2.85;;
30299;SDS011;17110;52.602;12.998;2023-03-23T02:49:26;5.20;;;2.58;;
30299;SDS011;17110;52.602;12.998;2023-03-23T02:52:14;3.55;;;2.55;;
30299;SDS011;17110;52.602;12.998;2023-03-23T02:55:00;4.20;;;2.90;;
30299;SDS011;17110;52.602;12.998;2023-03-23T02:57:30;2.88;;;2.53;;
30299;SDS011;17110;52.602;12.998;2023-03-23T02:59:56;2.92;;;2.50;;
30299;SDS011;17110;52.602;12.998;2023-03-23T03:02:35;2.63;;;2.10;;
30299;SDS011;17110;52.602;12.998;2023-03-23T03:08:13;3.20;;;2.60;;
30299;SDS011;17110;52.602;12.998;2023-03-23T03:11:02;4.13;;;2.83;;
30299;SDS011;17110;52.602;12.998;2023-03-23T03:16:37;4.68;;;2.63;;
30299;SDS011;17110;52.602;12.998;2023-03-23T03:21:45;4.25;;;3.10;;
30299;SDS011;17110;52.602;12.998;2023-03-23T03:24:14;4.30;;;3.10;;
30299;SDS011;17110;52.602;12.998;2023-03-23T03:26:44;5.43;;;3.58;;
30299;SDS011;17110;52.602;12.998;2023-03-23T03:29:22;4.53;;;3.35;;
30299;SDS011;17110;52.602;12.998;2023-03-23T03:31:51;5.53;;;3.33;;
30299;SDS011;17110;52.602;12.998;2023-03-23T03:34:20;4.65;;;3.50;;
30299;SDS011;17110;52.602;12.998;2023-03-23T03:36:49;5.07;;;3.70;;
30299;SDS011;17110;52.602;12.998;2023-03-23T03:39:18;4.32;;;3.80;;
30299;SDS011;17110;52.602;12.998;2023-03-23T03:41:45;5.63;;;4.20;;
30299;SDS011;17110;52.602;12.998;2023-03-23T03:44:12;6.03;;;4.15;;
30299;SDS011;17110;52.602;12.998;2023-03-23T03:46:37;4.50;;;4.05;;
30299;SDS011;17110;52.602;12.998;2023-03-23T03:49:05;7.00;;;4.10;;
30299;SDS011;17110;52.602;12.998;2023-03-23T03:51:32;4.15;;;3.65;;
30299;SDS011;17110;52.602;12.998;2023-03-23T03:54:00;5.65;;;3.92;;
30299;SDS011;17110;52.602;12.998;2023-03-23T03:56:26;5.65;;;4.00;;
30299;SDS011;17110;52.602;12.998;2023-03-23T03:58:52;3.90;;;3.50;;
30299;SDS011;17110;52.602;12.998;2023-03-23T04:01:19;6.30;;;4.32;;
30299;SDS011;17110;52.602;12.998;2023-03-23T04:03:47;6.80;;;4.57;;
30299;SDS011;17110;52.602;12.998;2023-03-23T04:06:14;6.90;;;4.70;;
30299;SDS011;17110;52.602;12.998;2023-03-23T04:08:40;5.32;;;4.40;;
30299;SDS011;17110;52.602;12.998;2023-03-23T04:11:07;5.65;;;4.07;;
30299;SDS011;17110;52.602;12.998;2023-03-23T04:13:45;7.32;;;4.50;;
30299;SDS011;17110;52.602;12.998;2023-03-23T04:16:11;7.75;;;4.90;;
30299;SDS011;17110;52.602;12.998;2023-03-23T04:18:37;7.63;;;4.82;;
30299;SDS011;17110;52.602;12.998;2023-03-23T04:21:05;5.18;;;4.20;;
30299;SDS011;17110;52.602;12.998;2023-03-23T04:23:35;6.25;;;4.10;;
30299;SDS011;17110;52.602;12.998;2023-03-23T04:26:04;7.20;;;4.40;;
30299;SDS011;17110;52.602;12.998;2023-03-23T04:28:30;6.85;;;4.53;;
30299;SDS011;17110;52.602;12.998;2023-03-23T04:31:01;4.88;;;4.30;;
30299;SDS011;17110;52.602;12.998;2023-03-23T04:33:28;7.65;;;5.32;;
30299;SDS011;17110;52.602;12.998;2023-03-23T04:35:59;6.00;;;5.17;;
30299;SDS011;17110;52.602;12.998;2023-03-23T04:38:28;6.30;;;5.07;;
30299;SDS011;17110;52.602;12.998;2023-03-23T04:41:00;6.68;;;4.82;;
30299;SDS011;17110;52.602;12.998;2023-03-23T04:43:26;4.97;;;4.10;;
30299;SDS011;17110;52.602;12.998;2023-03-23T04:45:53;5.82;;;4.35;;
30299;SDS011;17110;52.602;12.998;2023-03-23T04:48:26;5.20;;;4.70;;
30299;SDS011;17110;52.602;12.998;2023-03-23T04:50:55;5.28;;;4.78;;
30299;SDS011;17110;52.602;12.998;2023-03-23T04:53:21;6.30;;;4.70;;
30299;SDS011;17110;52.602;12.998;2023-03-23T04:55:49;7.35;;;5.00;;
30299;SDS011;17110;52.602;12.998;2023-03-23T04:58:15;6.40;;;5.07;;
30299;SDS011;17110;52.602;12.998;2023-03-23T05:00:42;6.90;;;4.90;;
30299;SDS011;17110;52.602;12.998;2023-03-23T05:03:09;6.00;;;4.85;;
30299;SDS011;17110;52.602;12.998;2023-03-23T05:05:36;6.78;;;5.00;;
30299;SDS011;17110;52.602;12.998;2023-03-23T05:08:02;5.15;;;4.60;;
30299;SDS011;17110;52.602;12.998;2023-03-23T05:10:28;6.47;;;4.80;;
30299;SDS011;17110;52.602;12.998;2023-03-23T05:12:54;7.97;;;4.80;;
30299;SDS011;17110;52.602;12.998;2023-03-23T05:15:20;5.80;;;4.82;;
30299;SDS011;17110;52.602;12.998;2023-03-23T05:17:46;6.07;;;5.40;;
30299;SDS011;17110;52.602;12.998;2023-03-23T05:20:14;10.55;;;6.05;;
30299;SDS011;17110;52.602;12.998;2023-03-23T05:22:47;6.83;;;6.03;;
30299;SDS011;17110;52.602;12.998;2023-03-23T05:25:14;6.22;;;5.63;;
30299;SDS011;17110;52.602;12.998;2023-03-23T05:27:44;8.00;;;6.03;;
30299;SDS011;17110;52.602;12.998;2023-03-23T05:30:13;7.68;;;6.25;;
30299;SDS011;17110;52.602;12.998;2023-03-23T05:32:43;8.10;;;7.28;;
30299;SDS011;17110;52.602;12.998;2023-03-23T05:35:10;7.57;;;6.35;;
30299;SDS011;17110;52.602;12.998;2023-03-23T05:37:37;8.55;;;6.45;;
30299;SDS011;17110;52.602;12.998;2023-03-23T05:40:03;6.95;;;6.25;;
30299;SDS011;17110;52.602;12.998;2023-03-23T05:42:34;7.55;;;6.10;;
30299;SDS011;17110;52.602;12.998;2023-03-23T05:45:04;6.75;;;5.88;;
30299;SDS011;17110;52.602;12.998;2023-03-23T05:47:30;7.77;;;5.80;;
30299;SDS011;17110;52.602;12.998;2023-03-23T05:49:57;5.85;;;5.13;;
30299;SDS011;17110;52.602;12.998;2023-03-23T05:52:23;6.93;;;5.40;;
30299;SDS011;17110;52.602;12.998;2023-03-23T05:54:50;5.90;;;5.30;;
30299;SDS011;17110;52.602;12.998;2023-03-23T05:57:16;6.10;;;4.88;;
30299;SDS011;17110;52.602;12.998;2023-03-23T05:59:43;6.60;;;4.95;;
30299;SDS011;17110;52.602;12.998;2023-03-23T06:02:10;7.57;;;5.10;;
30299;SDS011;17110;52.602;12.998;2023-03-23T06:04:36;7.15;;;5.40;;
30299;SDS011;17110;52.602;12.998;2023-03-23T06:07:03;7.13;;;5.03;;
30299;SDS011;17110;52.602;12.998;2023-03-23T06:09:29;8.25;;;5.07;;
30299;SDS011;17110;52.602;12.998;2023-03-23T06:11:55;8.70;;;5.00;;
30299;SDS011;17110;52.602;12.998;2023-03-23T06:14:21;6.17;;;4.73;;
30299;SDS011;17110;52.602;12.998;2023-03-23T06:16:47;5.03;;;4.53;;
30299;SDS011;17110;52.602;12.998;2023-03-23T06:19:13;5.40;;;4.40;;
30299;SDS011;17110;52.602;12.998;2023-03-23T06:21:40;5.55;;;4.35;;
30299;SDS011;17110;52.602;12.998;2023-03-23T06:24:06;5.90;;;4.43;;
30299;SDS011;17110;52.602;12.998;2023-03-23T06:26:34;5.32;;;4.40;;
30299;SDS011;17110;52.602;12.998;2023-03-23T06:29:02;8.50;;;5.07;;
30299;SDS011;17110;52.602;12.998;2023-03-23T06:31:35;5.78;;;5.15;;
30299;SDS011;17110;52.602;12.998;2023-03-23T06:34:18;6.13;;;5.10;;
30299;SDS011;17110;52.602;12.998;2023-03-23T06:36:44;7.40;;;4.60;;
30299;SDS011;17110;52.602;12.998;2023-03-23T06:39:09;6.80;;;4.30;;
30299;SDS011;17110;52.602;12.998;2023-03-23T06:41:37;7.82;;;4.45;;
30299;SDS011;17110;52.602;12.998;2023-03-23T06:44:03;7.63;;;4.22;;
30299;SDS011;17110;52.602;12.998;2023-03-23T06:46:28;6.20;;;4.17;;
30299;SDS011;17110;52.602;12.998;2023-03-23T06:48:54;8.93;;;4.38;;
30299;SDS011;17110;52.602;12.998;2023-03-23T06:51:21;6.68;;;4.30;;
30299;SDS011;17110;52.602;12.998;2023-03-23T06:53:46;4.75;;;4.10;;
30299;SDS011;17110;52.602;12.998;2023-03-23T06:56:12;6.45;;;3.92;;
30299;SDS011;17110;52.602;12.998;2023-03-23T06:58:38;6.13;;;4.22;;
30299;SDS011;17110;52.602;12.998;2023-03-23T07:01:04;5.47;;;4.00;;
30299;SDS011;17110;52.602;12.998;2023-03-23T07:03:31;8.05;;;4.30;;
30299;SDS011;17110;52.602;12.998;2023-03-23T07:05:58;5.25;;;3.90;;
30299;SDS011;17110;52.602;12.998;2023-03-23T07:08:24;4.75;;;4.13;;
30299;SDS011;17110;52.602;12.998;2023-03-23T07:10:51;5.60;;;3.95;;
30299;SDS011;17110;52.602;12.998;2023-03-23T07:13:18;6.25;;;4.00;;
30299;SDS011;17110;52.602;12.998;2023-03-23T07:15:44;5.40;;;3.92;;
30299;SDS011;17110;52.602;12.998;2023-03-23T07:18:10;5.47;;;4.00;;
30299;SDS011;17110;52.602;12.998;2023-03-23T07:20:36;5.22;;;4.00;;
30299;SDS011;17110;52.602;12.998;2023-03-23T07:23:02;5.78;;;3.92;;
30299;SDS011;17110;52.602;12.998;2023-03-23T07:25:30;5.30;;;4.53;;
30299;SDS011;17110;52.602;12.998;2023-03-23T07:27:58;5.75;;;3.95;;
30299;SDS011;17110;52.602;12.998;2023-03-23T07:30:27;6.10;;;4.13;;
30299;SDS011;17110;52.602;12.998;2023-03-23T07:32:56;5.25;;;3.78;;
30299;SDS011;17110;52.602;12.998;2023-03-23T07:35:23;4.40;;;4.00;;
30299;SDS011;17110;52.602;12.998;2023-03-23T07:37:50;5.18;;;3.85;;
30299;SDS011;17110;52.602;12.998;2023-03-23T07:40:17;4.38;;;3.50;;
30299;SDS011;17110;52.602;12.998;2023-03-23T07:42:44;5.43;;;3.40;;
30299;SDS011;17110;52.602;12.998;2023-03-23T07:45:14;4.43;;;3.42;;
30299;SDS011;17110;52.602;12.998;2023-03-23T07:47:40;5.28;;;3.58;;
30299;SDS011;17110;52.602;12.998;2023-03-23T07:50:07;4.72;;;3.33;;
30299;SDS011;17110;52.602;12.998;2023-03-23T07:52:34;4.60;;;3.33;;
30299;SDS011;17110;52.602;12.998;2023-03-23T07:55:01;4.15;;;3.15;;
30299;SDS011;17110;52.602;12.998;2023-03-23T07:57:28;4.70;;;3.20;;
30299;SDS011;17110;52.602;12.998;2023-03-23T07:59:55;4.45;;;2.80;;
30299;SDS011;17110;52.602;12.998;2023-03-23T08:02:21;3.45;;;2.97;;
30299;SDS011;17110;52.602;12.998;2023-03-23T08:04:48;6.03;;;3.00;;
30299;SDS011;17110;52.602;12.998;2023-03-23T08:07:19;3.50;;;3.20;;
30299;SDS011;17110;52.602;12.998;2023-03-23T08:09:59;3.10;;;2.60;;
30299;SDS011;17110;52.602;12.998;2023-03-23T08:12:26;3.85;;;2.80;;
30299;SDS011;17110;52.602;12.998;2023-03-23T08:14:52;3.67;;;2.60;;
30299;SDS011;17110;52.602;12.998;2023-03-23T08:17:19;4.43;;;3.20;;
30299;SDS011;17110;52.602;12.998;2023-03-23T08:19:45;4.45;;;2.92;;
30299;SDS011;17110;52.602;12.998;2023-03-23T08:22:11;5.43;;;2.97;;
30299;SDS011;17110;52.602;12.998;2023-03-23T08:24:37;4.72;;;3.22;;
30299;SDS011;17110;52.602;12.998;2023-03-23T08:27:03;5.18;;;3.42;;
30299;SDS011;17110;52.602;12.998;2023-03-23T08:29:29;4.33;;;3.00;;
30299;SDS011;17110;52.602;12.998;2023-03-23T08:31:56;5.15;;;3.10;;
30299;SDS011;17110;52.602;12.998;2023-03-23T08:34:32;3.43;;;2.90;;
30299;SDS011;17110;52.602;12.998;2023-03-23T08:37:00;5.03;;;2.90;;
30299;SDS011;17110;52.602;12.998;2023-03-23T08:39:30;3.63;;;2.78;;
30299;SDS011;17110;52.602;12.998;2023-03-23T08:41:58;2.92;;;2.63;;
30299;SDS011;17110;52.602;12.998;2023-03-23T08:44:24;3.10;;;2.80;;
30299;SDS011;17110;52.602;12.998;2023-03-23T08:46:52;5.68;;;2.90;;
30299;SDS011;17110;52.602;12.998;2023-03-23T08:49:23;3.33;;;2.97;;
30299;SDS011;17110;52.602;12.998;2023-03-23T08:55:00;4.53;;;3.17;;
30299;SDS011;17110;52.602;12.998;2023-03-23T08:57:28;4.18;;;2.90;;
30299;SDS011;17110;52.602;12.998;2023-03-23T09:00:05;3.50;;;2.78;;
30299;SDS011;17110;52.602;12.998;2023-03-23T09:03:01;3.90;;;2.88;;
30299;SDS011;17110;52.602;12.998;2023-03-23T09:05:51;3.70;;;2.95;;
30299;SDS011;17110;52.602;12.998;2023-03-23T09:08:19;3.95;;;3.30;;
30299;SDS011;17110;52.602;12.998;2023-03-23T09:10:45;4.15;;;3.20;;
30299;SDS011;17110;52.602;12.998;2023-03-23T09:13:14;4.57;;;2.63;;
30299;SDS011;17110;52.602;12.998;2023-03-23T09:16:00;2.90;;;2.25;;
30299;SDS011;17110;52.602;12.998;2023-03-23T09:18:29;3.67;;;2.50;;
30299;SDS011;17110;52.602;12.998;2023-03-23T09:20:57;2.80;;;1.80;;
30299;SDS011;17110;52.602;12.998;2023-03-23T09:23:24;3.15;;;2.03;;
30299;SDS011;17110;52.602;12.998;2023-03-23T09:25:50;2.50;;;2.17;;
30299;SDS011;17110;52.602;12.998;2023-03-23T09:28:16;3.50;;;2.13;;
30299;SDS011;17110;52.602;12.998;2023-03-23T09:30:54;3.10;;;1.90;;
30299;SDS011;17110;52.602;12.998;2023-03-23T09:33:27;3.05;;;2.00;;
30299;SDS011;17110;52.602;12.998;2023-03-23T09:36:04;2.83;;;2.22;;
30299;SDS011;17110;52.602;12.998;2023-03-23T09:38:40;1.88;;;1.60;;
30299;SDS011;17110;52.602;12.998;2023-03-23T09:41:36;2.42;;;1.80;;
30299;SDS011;17110;52.602;12.998;2023-03-23T09:50:48;2.83;;;1.90;;
30299;SDS011;17110;52.602;12.998;2023-03-23T09:57:10;4.28;;;2.08;;
30299;SDS011;17110;52.602;12.998;2023-03-23T10:08:11;2.28;;;1.90;;
30299;SDS011;17110;52.602;12.998;2023-03-23T10:14:09;2.70;;;2.15;;
30299;SDS011;17110;52.602;12.998;2023-03-23T10:22:09;4.05;;;2.10;;
30299;SDS011;17110;52.602;12.998;2023-03-23T10:24:43;2.22;;;1.95;;
30299;SDS011;17110;52.602;12.998;2023-03-23T10:27:33;3.00;;;1.87;;
30299;SDS011;17110;52.602;12.998;2023-03-23T10:30:22;3.65;;;1.80;;
30299;SDS011;17110;52.602;12.998;2023-03-23T10:33:08;2.28;;;1.98;;
30299;SDS011;17110;52.602;12.998;2023-03-23T10:35:50;2.20;;;1.70;;
30299;SDS011;17110;52.602;12.998;2023-03-23T10:38:38;2.67;;;2.00;;
30299;SDS011;17110;52.602;12.998;2023-03-23T10:41:16;2.97;;;1.90;;
30299;SDS011;17110;52.602;12.998;2023-03-23T10:48:43;4.32;;;2.17;;
30299;SDS011;17110;52.602;12.998;2023-03-23T10:51:41;2.38;;;2.15;;
30299;SDS011;17110;52.602;12.998;2023-03-23T10:54:23;3.22;;;2.08;;
30299;SDS011;17110;52.602;12.998;2023-03-23T10:57:35;2.00;;;1.80;;
30299;SDS011;17110;52.602;12.998;2023-03-23T11:00:29;2.50;;;2.10;;
30299;SDS011;17110;52.602;12.998;2023-03-23T11:06:27;3.35;;;2.08;;
30299;SDS011;17110;52.602;12.998;2023-03-23T11:09:20;3.20;;;2.03;;
30299;SDS011;17110;52.602;12.998;2023-03-23T11:12:01;2.33;;;2.08;;
30299;SDS011;17110;52.602;12.998;2023-03-23T11:14:35;2.78;;;1.73;;
30299;SDS011;17110;52.602;12.998;2023-03-23T11:17:04;2.00;;;1.80;;
30299;SDS011;17110;52.602;12.998;2023-03-23T11:19:44;1.95;;;1.70;;
30299;SDS011;17110;52.602;12.998;2023-03-23T11:22:29;2.30;;;1.93;;
30299;SDS011;17110;52.602;12.998;2023-03-23T11:25:04;3.42;;;2.10;;
30299;SDS011;17110;52.602;12.998;2023-03-23T11:27:35;3.45;;;1.92;;
30299;SDS011;17110;52.602;12.998;2023-03-23T11:30:25;2.20;;;1.65;;
30299;SDS011;17110;52.602;12.998;2023-03-23T11:33:14;2.93;;;2.00;;
30299;SDS011;17110;52.602;12.998;2023-03-23T11:36:08;2.33;;;1.87;;
30299;SDS011;17110;52.602;12.998;2023-03-23T11:41:52;3.00;;;1.98;;
30299;SDS011;17110;52.602;12.998;2023-03-23T11:45:05;2.90;;;2.00;;
30299;SDS011;17110;52.602;12.998;2023-03-23T11:59:30;3.20;;;1.77;;
30299;SDS011;17110;52.602;12.998;2023-03-23T12:49:00;4.93;;;2.28;;
30299;SDS011;17110;52.602;12.998;2023-03-23T13:01:28;3.15;;;2.15;;
30299;SDS011;17110;52.602;12.998;2023-03-23T13:10:50;3.38;;;1.90;;
30299;SDS011;17110;52.602;12.998;2023-03-23T13:13:51;2.70;;;1.90;;
30299;SDS011;17110;52.602;12.998;2023-03-23T13:29:19;3.63;;;2.10;;
30299;SDS011;17110;52.602;12.998;2023-03-23T13:31:52;4.70;;;2.00;;
30299;SDS011;17110;52.602;12.998;2023-03-23T13:34:40;3.28;;;1.95;;
30299;SDS011;17110;52.602;12.998;2023-03-23T13:40:52;4.47;;;2.00;;
30299;SDS011;17110;52.602;12.998;2023-03-23T13:42:58;6.50;;;2.28;;
30299;SDS011;17110;52.602;12.998;2023-03-23T13:45:48;4.20;;;2.20;;
30299;SDS011;17110;52.602;12.998;2023-03-23T13:51:56;4.18;;;2.45;;
30299;SDS011;17110;52.602;12.998;2023-03-23T13:54:50;4.60;;;2.10;;
30299;SDS011;17110;52.602;12.998;2023-03-23T14:01:29;4.22;;;2.20;;
30299;SDS011;17110;52.602;12.998;2023-03-23T14:04:32;5.03;;;2.47;;
30299;SDS011;17110;52.602;12.998;2023-03-23T14:10:48;5.90;;;2.00;;
30299;SDS011;17110;52.602;12.998;2023-03-23T14:20:29;4.97;;;2.30;;
30299;SDS011;17110;52.602;12.998;2023-03-23T14:23:44;6.23;;;2.30;;
30299;SDS011;17110;52.602;12.998;2023-03-23T14:29:44;6.53;;;2.37;;
30299;SDS011;17110;52.602;12.998;2023-03-23T14:32:38;3.38;;;2.28;;
30299;SDS011;17110;52.602;12.998;2023-03-23T14:35:21;3.53;;;2.33;;
30299;SDS011;17110;52.602;12.998;2023-03-23T14:38:13;4.47;;;2.50;;
30299;SDS011;17110;52.602;12.998;2023-03-23T14:40:49;4.43;;;2.30;;
30299;SDS011;17110;52.602;12.998;2023-03-23T14:43:25;6.80;;;2.30;;
30299;SDS011;17110;52.602;12.998;2023-03-23T14:45:56;5.00;;;1.90;;
30299;SDS011;17110;52.602;12.998;2023-03-23T14:48:30;5.22;;;2.00;;
30299;SDS011;17110;52.602;12.998;2023-03-23T14:51:00;5.93;;;2.38;;
30299;SDS011;17110;52.602;12.998;2023-03-23T14:56:51;4.72;;;2.00;;
30299;SDS011;17110;52.602;12.998;2023-03-23T14:59:20;6.00;;;1.90;;
30299;SDS011;17110;52.602;12.998;2023-03-23T15:02:13;3.03;;;1.70;;
30299;SDS011;17110;52.602;12.998;2023-03-23T15:04:48;3.83;;;1.90;;
30299;SDS011;17110;52.602;12.998;2023-03-23T15:07:29;4.35;;;1.98;;
30299;SDS011;17110;52.602;12.998;2023-03-23T15:10:06;4.88;;;2.20;;
30299;SDS011;17110;52.602;12.998;2023-03-23T15:12:39;4.70;;;1.80;;
30299;SDS011;17110;52.602;12.998;2023-03-23T15:15:21;6.32;;;2.05;;
30299;SDS011;17110;52.602;12.998;2023-03-23T15:17:50;4.70;;;2.10;;
30299;SDS011;17110;52.602;12.998;2023-03-23T15:20:29;5.15;;;2.10;;
30299;SDS011;17110;52.602;12.998;2023-03-23T15:23:06;3.53;;;2.10;;
30299;SDS011;17110;52.602;12.998;2023-03-23T15:25:40;5.28;;;1.92;;
30299;SDS011;17110;52.602;12.998;2023-03-23T15:28:30;3.60;;;2.15;;
30299;SDS011;17110;52.602;12.998;2023-03-23T15:38:29;5.27;;;2.03;;
30299;SDS011;17110;52.602;12.998;2023-03-23T15:41:49;5.72;;;2.10;;
30299;SDS011;17110;52.602;12.998;2023-03-23T15:58:18;3.93;;;1.67;;
30299;SDS011;17110;52.602;12.998;2023-03-23T16:00:49;2.70;;;1.60;;
30299;SDS011;17110;52.602;12.998;2023-03-23T16:04:10;2.88;;;1.52;;
30299;SDS011;17110;52.602;12.998;2023-03-23T16:13:03;2.78;;;1.42;;
30299;SDS011;17110;52.602;12.998;2023-03-23T16:15:35;2.88;;;1.50;;
30299;SDS011;17110;52.602;12.998;2023-03-23T16:25:07;4.97;;;1.90;;
30299;SDS011;17110;52.602;12.998;2023-03-23T16:31:11;3.22;;;1.67;;
30299;SDS011;17110;52.602;12.998;2023-03-23T16:33:42;3.95;;;1.80;;
30299;SDS011;17110;52.602;12.998;2023-03-23T16:40:30;4.50;;;2.10;;
30299;SDS011;17110;52.602;12.998;2023-03-23T16:43:32;3.35;;;1.90;;
30299;SDS011;17110;52.602;12.998;2023-03-23T17:03:08;3.67;;;1.83;;
30299;SDS011;17110;52.602;12.998;2023-03-23T17:08:39;3.50;;;2.23;;
30299;SDS011;17110;52.602;12.998;2023-03-23T17:11:10;3.92;;;2.17;;
30299;SDS011;17110;52.602;12.998;2023-03-23T17:13:47;4.82;;;2.30;;
30299;SDS011;17110;52.602;12.998;2023-03-23T17:16:21;4.50;;;2.03;;
30299;SDS011;17110;52.602;12.998;2023-03-23T17:18:52;4.32;;;2.47;;
30299;SDS011;17110;52.602;12.998;2023-03-23T17:21:18;3.55;;;2.25;;
30299;SDS011;17110;52.602;12.998;2023-03-23T17:23:46;5.43;;;2.63;;
30299;SDS011;17110;52.602;12.998;2023-03-23T17:26:12;4.70;;;2.07;;
30299;SDS011;17110;52.602;12.998;2023-03-23T17:28:38;4.63;;;2.20;;
30299;SDS011;17110;52.602;12.998;2023-03-23T17:31:04;4.43;;;2.13;;
30299;SDS011;17110;52.602;12.998;2023-03-23T17:33:31;3.92;;;2.05;;
30299;SDS011;17110;52.602;12.998;2023-03-23T17:35:57;5.07;;;2.30;;
30299;SDS011;17110;52.602;12.998;2023-03-23T17:38:23;5.17;;;2.30;;
30299;SDS011;17110;52.602;12.998;2023-03-23T17:40:54;4.32;;;2.50;;
30299;SDS011;17110;52.602;12.998;2023-03-23T17:43:21;4.72;;;2.85;;
30299;SDS011;17110;52.602;12.998;2023-03-23T17:45:47;5.20;;;3.10;;
30299;SDS011;17110;52.602;12.998;2023-03-23T17:48:13;5.07;;;3.00;;
30299;SDS011;17110;52.602;12.998;2023-03-23T17:50:39;5.88;;;3.45;;
30299;SDS011;17110;52.602;12.998;2023-03-23T17:53:04;4.68;;;3.05;;
30299;SDS011;17110;52.602;12.998;2023-03-23T17:55:32;6.90;;;4.05;;
30299;SDS011;17110;52.602;12.998;2023-03-23T17:57:58;7.68;;;3.65;;
30299;SDS011;17110;52.602;12.998;2023-03-23T18:00:24;6.15;;;3.25;;
30299;SDS011;17110;52.602;12.998;2023-03-23T18:02:50;7.20;;;5.45;;
30299;SDS011;17110;52.602;12.998;2023-03-23T18:05:16;7.55;;;5.10;;
30299;SDS011;17110;52.602;12.998;2023-03-23T18:07:43;4.30;;;3.15;;
30299;SDS011;17110;52.602;12.998;2023-03-23T18:10:09;7.10;;;3.83;;
30299;SDS011;17110;52.602;12.998;2023-03-23T18:12:38;9.70;;;7.97;;
30299;SDS011;17110;52.602;12.998;2023-03-23T18:15:05;7.90;;;6.53;;
30299;SDS011;17110;52.602;12.998;2023-03-23T18:17:34;11.02;;;6.90;;
30299;SDS011;17110;52.602;12.998;2023-03-23T18:20:00;13.25;;;9.10;;
30299;SDS011;17110;52.602;12.998;2023-03-23T18:22:25;19.03;;;14.80;;
30299;SDS011;17110;52.602;12.998;2023-03-23T18:24:51;13.70;;;10.17;;
30299;SDS011;17110;52.602;12.998;2023-03-23T18:27:18;13.55;;;10.65;;
30299;SDS011;17110;52.602;12.998;2023-03-23T18:29:44;9.05;;;6.60;;
30299;SDS011;17110;52.602;12.998;2023-03-23T18:32:10;11.20;;;8.02;;
30299;SDS011;17110;52.602;12.998;2023-03-23T18:34:39;11.20;;;7.87;;
30299;SDS011;17110;52.602;12.998;2023-03-23T18:37:07;15.45;;;10.07;;
30299;SDS011;17110;52.602;12.998;2023-03-23T18:39:36;14.82;;;9.88;;
30299;SDS011;17110;52.602;12.998;2023-03-23T18:42:13;12.25;;;8.68;;
30299;SDS011;17110;52.602;12.998;2023-03-23T18:44:40;20.83;;;13.27;;
30299;SDS011;17110;52.602;12.998;2023-03-23T18:47:12;11.60;;;8.05;;
30299;SDS011;17110;52.602;12.998;2023-03-23T18:49:38;10.93;;;7.25;;
30299;SDS011;17110;52.602;12.998;2023-03-23T18:52:07;8.68;;;4.75;;
30299;SDS011;17110;52.602;12.998;2023-03-23T18:54:38;8.07;;;5.10;;
30299;SDS011;17110;52.602;12.998;2023-03-23T18:57:05;9.32;;;5.68;;
30299;SDS011;17110;52.602;12.998;2023-03-23T18:59:34;12.57;;;7.95;;
30299;SDS011;17110;52.602;12.998;2023-03-23T19:02:00;12.03;;;9.33;;
30299;SDS011;17110;52.602;12.998;2023-03-23T19:04:30;13.77;;;8.67;;
30299;SDS011;17110;52.602;12.998;2023-03-23T19:07:02;9.40;;;6.55;;
30299;SDS011;17110;52.602;12.998;2023-03-23T19:09:35;9.80;;;7.80;;
30299;SDS011;17110;52.602;12.998;2023-03-23T19:15:13;8.00;;;5.60;;
30299;SDS011;17110;52.602;12.998;2023-03-23T19:18:22;16.33;;;11.82;;